createdAt,value
2017-12-01T00:01:14.746Z,17.31
2017-12-01T00:03:20.206Z,17.31
2017-12-01T00:05:25.578Z,17.31
2017-12-01T00:07:31.048Z,17.25
2017-12-01T00:09:36.603Z,17.25
2017-12-01T00:11:42.032Z,17.25
2017-12-01T00:13:47.626Z,17.25
2017-12-01T00:15:53.356Z,17.19
2017-12-01T00:17:58.516Z,17.25
2017-12-01T00:20:03.905Z,17.25
2017-12-01T00:22:09.244Z,17.19
2017-12-01T00:24:14.684Z,17.19
2017-12-01T00:26:20.259Z,17.19
2017-12-01T00:28:25.402Z,17.19
2017-12-01T00:30:30.863Z,17.19
2017-12-01T00:32:36.202Z,17.19
2017-12-01T00:34:42.259Z,17.19
2017-12-01T00:36:47.563Z,17.25
2017-12-01T00:38:52.902Z,17.19
2017-12-01T00:40:58.308Z,17.19
2017-12-01T00:43:06.061Z,17.25
2017-12-01T00:45:11.448Z,17.19
2017-12-01T00:47:16.616Z,17.19
2017-12-01T00:49:21.883Z,17.19
2017-12-01T00:51:27.298Z,17.19
2017-12-01T00:53:32.946Z,17.13
2017-12-01T00:55:38.355Z,17.13
2017-12-01T00:57:43.656Z,17.13
2017-12-01T00:59:49.117Z,17.13
2017-12-01T01:01:54.477Z,17.13
2017-12-01T01:03:59.979Z,17.13
2017-12-01T01:06:05.221Z,17.13
2017-12-01T01:08:10.540Z,17.13
2017-12-01T01:10:16.687Z,17.13
2017-12-01T01:12:22.238Z,17.19
2017-12-01T01:14:27.684Z,17.13
2017-12-01T01:16:32.997Z,17.13
2017-12-01T01:18:38.272Z,17.13
2017-12-01T01:20:43.702Z,17.13
2017-12-01T01:22:49.319Z,17.13
2017-12-01T01:24:54.734Z,17.06
2017-12-01T01:27:00.206Z,17.06
2017-12-01T01:29:05.640Z,17.06
2017-12-01T01:31:11.741Z,17
2017-12-01T01:33:17.427Z,17.06
2017-12-01T01:35:22.981Z,17.06
2017-12-01T01:37:28.285Z,17.06
2017-12-01T01:39:33.542Z,17
2017-12-01T01:41:38.761Z,17.06
2017-12-01T01:43:44.160Z,17.06
2017-12-01T01:45:49.548Z,17.06
2017-12-01T01:47:54.801Z,17
2017-12-01T01:50:00.051Z,17
2017-12-01T01:52:05.522Z,17
2017-12-01T01:54:10.923Z,17
2017-12-01T01:56:16.042Z,17
2017-12-01T01:58:21.438Z,17
2017-12-01T02:00:26.690Z,16.94
2017-12-01T02:02:32.482Z,17
2017-12-01T02:04:37.639Z,17
2017-12-01T02:06:42.926Z,17
2017-12-01T02:08:48.123Z,16.94
2017-12-01T02:10:53.667Z,16.94
2017-12-01T02:12:59.940Z,16.94
2017-12-01T02:15:05.304Z,16.94
2017-12-01T02:17:11.063Z,16.94
2017-12-01T02:19:16.259Z,16.94
2017-12-01T02:21:21.424Z,16.94
2017-12-01T02:23:26.660Z,16.94
2017-12-01T02:25:31.760Z,16.94
2017-12-01T02:27:37.197Z,16.94
2017-12-01T02:29:42.696Z,16.94
2017-12-01T02:31:47.783Z,16.94
2017-12-01T02:33:53.321Z,16.94
2017-12-01T02:35:58.496Z,16.94
2017-12-01T02:38:04.088Z,16.94
2017-12-01T02:40:09.381Z,16.88
2017-12-01T02:42:14.615Z,16.94
2017-12-01T02:44:19.863Z,16.88
2017-12-01T02:46:25.159Z,16.94
2017-12-01T02:48:30.507Z,16.88
2017-12-01T02:50:35.664Z,16.88
2017-12-01T02:52:40.919Z,16.88
2017-12-01T02:54:46.565Z,16.88
2017-12-01T02:56:51.800Z,16.88
2017-12-01T02:58:57.047Z,16.88
2017-12-01T03:01:02.241Z,16.81
2017-12-01T03:03:07.678Z,16.88
2017-12-01T03:05:12.860Z,16.88
2017-12-01T03:07:18.202Z,16.81
2017-12-01T03:09:23.564Z,16.81
2017-12-01T03:11:28.802Z,16.88
2017-12-01T03:13:33.925Z,16.81
2017-12-01T03:15:39.057Z,16.81
2017-12-01T03:17:44.338Z,16.81
2017-12-01T03:19:49.595Z,16.81
2017-12-01T03:21:54.921Z,16.81
2017-12-01T03:24:00.343Z,16.81
2017-12-01T03:26:05.645Z,16.75
2017-12-01T03:28:10.704Z,16.81
2017-12-01T03:30:15.924Z,16.75
2017-12-01T03:32:21.143Z,16.81
2017-12-01T03:34:26.379Z,16.81
2017-12-01T03:36:31.694Z,16.75
2017-12-01T03:38:36.798Z,16.75
2017-12-01T03:40:42.165Z,16.69
2017-12-01T03:42:47.598Z,16.75
2017-12-01T03:44:52.804Z,16.75
2017-12-01T03:46:58.358Z,16.75
2017-12-01T03:49:03.739Z,16.75
2017-12-01T03:51:08.905Z,16.75
2017-12-01T03:53:14.162Z,16.75
2017-12-01T03:55:19.806Z,16.69
2017-12-01T03:57:25.177Z,16.75
2017-12-01T03:59:30.423Z,16.69
2017-12-01T04:01:35.768Z,16.69
2017-12-01T04:03:41.303Z,16.69
2017-12-01T04:05:46.681Z,16.69
2017-12-01T04:07:51.923Z,16.69
2017-12-01T04:09:57.116Z,16.69
2017-12-01T04:12:01.044Z,16.69
2017-12-01T04:14:06.616Z,16.69
2017-12-01T04:16:12.267Z,16.69
2017-12-01T04:18:17.479Z,16.69
2017-12-01T04:20:22.767Z,16.69
2017-12-01T04:22:28.202Z,16.63
2017-12-01T04:24:33.399Z,16.69
2017-12-01T04:26:38.745Z,16.69
2017-12-01T04:28:43.999Z,16.63
2017-12-01T04:30:49.338Z,16.69
2017-12-01T04:32:54.580Z,16.69
2017-12-01T04:34:59.944Z,16.63
2017-12-01T04:37:06.007Z,16.69
2017-12-01T04:39:11.501Z,16.63
2017-12-01T04:41:17.377Z,16.63
2017-12-01T04:43:22.762Z,16.63
2017-12-01T04:45:28.181Z,16.63
2017-12-01T04:47:33.561Z,16.63
2017-12-01T04:49:38.927Z,16.63
2017-12-01T04:51:44.805Z,16.63
2017-12-01T04:53:49.962Z,16.63
2017-12-01T04:55:56.507Z,16.63
2017-12-01T04:58:01.939Z,16.63
2017-12-01T05:00:08.259Z,16.63
2017-12-01T05:02:14.000Z,16.63
2017-12-01T05:04:19.599Z,16.63
2017-12-01T05:06:25.442Z,16.56
2017-12-01T05:08:31.186Z,16.56
2017-12-01T05:10:36.987Z,16.56
2017-12-01T05:12:43.618Z,16.56
2017-12-01T05:14:49.063Z,16.63
2017-12-01T05:16:54.924Z,16.56
2017-12-01T05:19:00.200Z,16.56
2017-12-01T05:21:05.422Z,16.56
2017-12-01T05:23:11.187Z,16.56
2017-12-01T05:25:16.838Z,16.56
2017-12-01T05:27:22.121Z,16.56
2017-12-01T05:29:27.509Z,16.56
2017-12-01T05:31:32.846Z,16.56
2017-12-01T05:33:38.742Z,16.56
2017-12-01T05:35:44.163Z,16.56
2017-12-01T05:37:49.718Z,16.56
2017-12-01T05:39:56.384Z,16.5
2017-12-01T05:42:02.551Z,16.5
2017-12-01T05:44:07.976Z,16.5
2017-12-01T05:46:13.377Z,16.5
2017-12-01T05:48:20.065Z,16.5
2017-12-01T05:50:27.244Z,16.5
2017-12-01T05:52:36.739Z,16.5
2017-12-01T05:54:42.617Z,16.44
2017-12-01T05:56:50.898Z,16.44
2017-12-01T05:58:58.968Z,16.44
2017-12-01T06:01:05.925Z,16.44
2017-12-01T06:03:11.965Z,16.5
2017-12-01T06:05:19.424Z,16.5
2017-12-01T06:07:26.524Z,16.5
2017-12-01T06:09:33.127Z,16.44
2017-12-01T06:11:40.162Z,16.44
2017-12-01T06:13:46.748Z,16.5
2017-12-01T06:15:54.019Z,16.44
2017-12-01T06:18:01.347Z,16.44
2017-12-01T06:20:12.238Z,16.44
2017-12-01T06:22:23.147Z,16.44
2017-12-01T06:24:32.481Z,16.44
2017-12-01T06:26:40.004Z,16.44
2017-12-01T06:28:48.395Z,16.44
2017-12-01T06:30:57.924Z,16.44
2017-12-01T06:33:07.770Z,16.38
2017-12-01T06:35:17.882Z,16.44
2017-12-01T06:37:32.963Z,16.44
2017-12-01T06:39:50.239Z,16.44
2017-12-01T06:42:11.145Z,16.44
2017-12-01T06:44:26.540Z,16.44
2017-12-01T06:46:38.202Z,16.44
2017-12-01T06:48:50.307Z,16.44
2017-12-01T06:51:07.485Z,16.44
2017-12-01T06:53:22.618Z,16.44
2017-12-01T06:55:40.662Z,16.44
2017-12-01T06:58:07.257Z,16.44
2017-12-01T07:02:56.939Z,16.38
2017-12-01T07:07:47.802Z,16.38
2017-12-01T07:10:16.341Z,16.38
2017-12-01T07:17:23.876Z,16.38
2017-12-01T07:19:39.146Z,16.38
2017-12-01T07:28:00.465Z,16.38
2017-12-01T07:35:19.064Z,16.38
2017-12-01T07:44:42.620Z,16.38
2017-12-01T07:47:02.319Z,16.38
2017-12-01T08:03:28.101Z,16.5
2017-12-01T08:05:40.942Z,16.44
2017-12-01T08:08:02.364Z,16.5
2017-12-01T08:20:50.121Z,16.5
2017-12-01T08:34:00.680Z,16.5
2017-12-01T08:41:20.625Z,16.5
2017-12-01T08:57:15.420Z,16.69
2017-12-01T09:56:06.000Z,19.94
